MDLR/LRM METAR and TAF weather

Enter ICAO airport designator
Station Type Date Time Source
MDLR METAR 2020/01/20 03:00 UTC NOAA

MDLR 200300Z 05006KT 9999 SCT016 22/22 Q1017


Station Type Date Time Source
MDLR Decoded METAR 2020/01/20 03:00 UTC NOAA

La Romana International Airport, Dominican Republic (MDLR) 18-25N 068-57W
Jan 19, 2020 - 10:00 PM EST / 2020.01.20 0300 UTC
Wind: from the NE (050 degrees) at 7 MPH (6 KT):0
Visibility: greater than 7 mile(s):0
Sky conditions: partly cloudy
Temperature: 71 F (22 C)
Dew Point: 71 F (22 C)
Relative Humidity: 100%
Pressure (altimeter): 30.03 in. Hg (1017 hPa)
ob: MDLR 200300Z 05006KT 9999 SCT016 22/22 Q1017
cycle: 3

Station Type Date Time Source
MDLR TAF 2020/01/20 12:18 UTC NOAA

TAF TAF MDLR 201000Z 2012/2112 06008KT 9999 SCT018 BKN080 PROB30 2016/2022 8000 -RA BKN017

Example: see airport list